createdAt,value
2019-01-18T00:02:00.416Z,44.76
2019-01-18T00:04:26.439Z,44.81
2019-01-18T00:06:52.450Z,44.85
2019-01-18T00:09:18.458Z,44.91
2019-01-18T00:11:44.531Z,44.83
2019-01-18T00:14:10.479Z,44.84
2019-01-18T00:16:36.479Z,44.78
2019-01-18T00:19:02.506Z,44.79
2019-01-18T00:21:28.485Z,44.86
2019-01-18T00:23:54.526Z,44.81
2019-01-18T00:26:20.515Z,44.83
2019-01-18T00:28:46.503Z,44.68
2019-01-18T00:31:12.542Z,44.77
2019-01-18T00:33:38.552Z,44.84
2019-01-18T00:36:04.558Z,44.68
2019-01-18T00:38:30.586Z,44.75
2019-01-18T00:40:56.569Z,44.80
2019-01-18T00:43:22.557Z,44.75
2019-01-18T00:45:48.571Z,44.75
2019-01-18T00:48:14.568Z,44.70
2019-01-18T00:50:40.605Z,44.70
2019-01-18T00:53:06.658Z,44.69
2019-01-18T00:55:32.673Z,44.78
2019-01-18T00:57:58.655Z,44.68
2019-01-18T01:00:24.670Z,44.58
2019-01-18T01:02:50.668Z,44.61
2019-01-18T01:05:16.655Z,44.63
2019-01-18T01:07:42.683Z,44.71
2019-01-18T01:10:08.687Z,44.62
2019-01-18T01:12:34.701Z,44.45
2019-01-18T01:15:00.741Z,44.63
2019-01-18T01:17:26.721Z,44.72
2019-01-18T01:19:52.703Z,44.72
2019-01-18T01:22:18.729Z,44.66
2019-01-18T01:24:44.726Z,44.64
2019-01-18T01:27:10.725Z,44.63
2019-01-18T01:29:42.921Z,44.72
2019-01-18T01:32:02.745Z,44.62
2019-01-18T01:34:28.745Z,44.58
2019-01-18T01:36:54.776Z,44.57
2019-01-18T01:39:20.758Z,44.62
2019-01-18T01:41:46.757Z,44.59
2019-01-18T01:44:12.768Z,44.65
2019-01-18T01:46:38.764Z,44.59
2019-01-18T01:49:04.810Z,44.66
2019-01-18T01:51:30.854Z,44.45
2019-01-18T01:53:56.859Z,44.57
2019-01-18T01:56:22.862Z,44.60
2019-01-18T01:58:48.896Z,44.49
2019-01-18T02:01:14.879Z,44.65
2019-01-18T02:03:40.881Z,44.52
2019-01-18T02:06:06.921Z,44.57
2019-01-18T02:08:32.908Z,44.58
2019-01-18T02:10:58.897Z,44.60
2019-01-18T02:13:24.940Z,44.55
2019-01-18T02:15:50.944Z,44.61
2019-01-18T02:18:16.924Z,44.55
2019-01-18T02:20:43.063Z,44.51
2019-01-18T02:23:09.055Z,44.57
2019-01-18T02:25:35.035Z,44.49
2019-01-18T02:28:01.057Z,44.57
2019-01-18T02:30:27.042Z,44.51
2019-01-18T02:32:53.040Z,44.49
2019-01-18T02:35:19.087Z,44.59
2019-01-18T02:37:45.090Z,44.48
2019-01-18T02:40:11.075Z,44.59
2019-01-18T02:42:37.117Z,44.26
2019-01-18T02:45:03.129Z,44.50
2019-01-18T02:47:29.107Z,44.47
2019-01-18T02:49:55.135Z,44.47
2019-01-18T02:52:21.133Z,44.50
2019-01-18T02:54:47.123Z,44.54
2019-01-18T02:57:13.159Z,44.57
2019-01-18T02:59:39.153Z,44.47
2019-01-18T03:02:05.142Z,44.44
2019-01-18T03:04:31.176Z,44.49
2019-01-18T03:06:57.154Z,44.47
2019-01-18T03:09:23.132Z,44.49
2019-01-18T03:11:49.170Z,44.34
2019-01-18T03:14:15.163Z,44.21
2019-01-18T03:16:41.152Z,44.40
2019-01-18T03:19:07.184Z,44.52
2019-01-18T03:21:33.170Z,44.45
2019-01-18T03:23:59.177Z,44.52
2019-01-18T03:26:25.203Z,44.38
2019-01-18T03:28:51.188Z,44.52
2019-01-18T03:31:17.208Z,44.36
2019-01-18T03:33:43.205Z,44.36
2019-01-18T03:36:09.200Z,44.28
2019-01-18T03:38:35.198Z,44.42
2019-01-18T03:41:01.236Z,44.41
2019-01-18T03:43:27.249Z,44.53
2019-01-18T03:45:53.250Z,44.29
2019-01-18T03:48:19.273Z,44.30
2019-01-18T03:50:45.262Z,44.34
2019-01-18T03:53:11.260Z,44.39
2019-01-18T03:55:37.260Z,44.37
2019-01-18T03:58:03.270Z,44.39
2019-01-18T04:00:29.298Z,44.49
2019-01-18T04:02:55.304Z,44.46
2019-01-18T04:05:21.303Z,44.39
2019-01-18T04:07:47.334Z,44.40
2019-01-18T04:10:13.334Z,44.34
2019-01-18T04:12:39.329Z,44.46
2019-01-18T04:15:05.367Z,44.38
2019-01-18T04:17:31.369Z,44.42
2019-01-18T04:19:57.361Z,44.47
2019-01-18T04:22:23.391Z,44.40
2019-01-18T04:24:49.501Z,44.36
2019-01-18T04:27:15.509Z,44.27
2019-01-18T04:29:41.543Z,44.08
2019-01-18T04:32:07.549Z,44.37
2019-01-18T04:34:33.538Z,44.33
2019-01-18T04:36:59.557Z,44.36
2019-01-18T04:39:25.566Z,44.26
2019-01-18T04:41:51.573Z,44.34
2019-01-18T04:44:17.603Z,44.26
2019-01-18T04:46:43.587Z,44.22
2019-01-18T04:49:09.572Z,44.26
2019-01-18T04:51:35.612Z,44.40
2019-01-18T04:54:01.597Z,44.30
2019-01-18T04:56:27.583Z,44.29
2019-01-18T04:58:53.610Z,44.26
2019-01-18T05:01:19.600Z,44.30
2019-01-18T05:03:45.607Z,44.35
2019-01-18T05:06:11.631Z,44.23
2019-01-18T05:08:37.623Z,44.38
2019-01-18T05:11:03.673Z,44.21
2019-01-18T05:13:29.696Z,44.28
2019-01-18T05:15:55.717Z,44.32
2019-01-18T05:18:21.687Z,44.32
2019-01-18T05:20:47.710Z,44.27
2019-01-18T05:23:13.709Z,44.15
2019-01-18T05:25:39.698Z,44.26
2019-01-18T05:28:05.779Z,44.26
2019-01-18T05:30:31.756Z,44.34
2019-01-18T05:32:57.774Z,44.26
2019-01-18T05:35:23.810Z,44.12
2019-01-18T05:37:49.802Z,44.24
2019-01-18T05:40:15.787Z,44.31
2019-01-18T05:42:41.840Z,44.23
2019-01-18T05:45:07.825Z,44.32
2019-01-18T05:47:33.839Z,44.36
2019-01-18T05:49:59.889Z,44.29
2019-01-18T05:52:25.890Z,44.29
2019-01-18T05:54:51.889Z,44.20
2019-01-18T05:57:17.913Z,44.21
2019-01-18T05:59:43.908Z,44.20
2019-01-18T06:02:09.901Z,44.33
2019-01-18T06:04:35.922Z,44.48
2019-01-18T06:07:01.912Z,44.59
2019-01-18T06:09:27.917Z,44.67
2019-01-18T06:11:53.947Z,44.84
2019-01-18T06:14:19.934Z,44.94
2019-01-18T06:16:45.938Z,44.94
2019-01-18T06:19:12.023Z,44.95
2019-01-18T06:21:38.051Z,44.88
2019-01-18T06:24:04.070Z,44.87
2019-01-18T06:26:30.134Z,44.80
2019-01-18T06:28:56.123Z,44.79
2019-01-18T06:31:22.114Z,44.71
2019-01-18T06:33:48.186Z,44.64
2019-01-18T06:36:14.205Z,44.63
2019-01-18T06:38:40.194Z,44.55
2019-01-18T06:41:06.236Z,44.50
2019-01-18T06:43:32.240Z,44.41
2019-01-18T06:45:58.228Z,44.33
2019-01-18T06:48:24.275Z,44.42
2019-01-18T06:50:50.269Z,44.30
2019-01-18T06:53:16.262Z,44.28
2019-01-18T06:55:42.304Z,44.20
2019-01-18T06:58:08.303Z,44.21
2019-01-18T07:00:34.300Z,44.22
2019-01-18T07:03:00.316Z,44.18
2019-01-18T07:05:26.298Z,44.15
2019-01-18T07:07:52.332Z,44.14
2019-01-18T07:10:20.920Z,44.16
2019-01-18T07:12:44.379Z,44.12
2019-01-18T07:15:10.402Z,44.13
2019-01-18T07:17:36.406Z,44.12
2019-01-18T07:20:02.412Z,44.15
2019-01-18T07:22:28.456Z,44.04
2019-01-18T07:24:54.545Z,44.02
2019-01-18T07:27:20.593Z,44.11
2019-01-18T07:29:46.553Z,44.14
2019-01-18T07:32:12.547Z,44.25
2019-01-18T07:34:38.586Z,44.18
2019-01-18T07:37:04.638Z,44.23
2019-01-18T07:39:30.624Z,44.21
2019-01-18T07:41:56.649Z,44.36
2019-01-18T07:44:22.689Z,44.33
2019-01-18T07:46:48.675Z,44.36
2019-01-18T07:49:14.708Z,44.41
2019-01-18T07:51:40.733Z,44.42
2019-01-18T07:54:06.716Z,44.40
2019-01-18T07:56:32.731Z,44.41
2019-01-18T07:58:58.762Z,44.38
2019-01-18T08:01:24.792Z,44.35
2019-01-18T08:03:50.749Z,44.39
2019-01-18T08:06:16.771Z,44.41
2019-01-18T08:08:42.950Z,44.37
2019-01-18T08:11:08.940Z,44.46
2019-01-18T08:13:34.977Z,44.46
2019-01-18T08:16:00.972Z,44.45
2019-01-18T08:18:26.966Z,44.44
2019-01-18T08:20:52.999Z,44.52
2019-01-18T08:23:18.981Z,44.44
2019-01-18T08:25:44.969Z,44.41
2019-01-18T08:28:10.992Z,44.42
2019-01-18T08:30:37.003Z,44.42
2019-01-18T08:33:03.005Z,44.39
2019-01-18T08:35:29.048Z,44.46
2019-01-18T08:37:55.031Z,44.51
2019-01-18T08:40:21.018Z,44.43
2019-01-18T08:42:47.046Z,44.49
2019-01-18T08:45:13.047Z,44.49
2019-01-18T08:47:39.040Z,44.40
2019-01-18T08:50:05.072Z,44.42
2019-01-18T08:52:31.191Z,44.35
2019-01-18T08:54:57.208Z,44.36
2019-01-18T08:57:23.243Z,44.23
2019-01-18T08:59:49.236Z,44.42
2019-01-18T09:02:15.233Z,44.21
2019-01-18T09:04:41.262Z,44.26
2019-01-18T09:07:07.253Z,44.31
2019-01-18T09:09:33.268Z,44.53
2019-01-18T09:11:59.299Z,44.53
2019-01-18T09:14:25.287Z,44.48
2019-01-18T09:16:51.302Z,44.40
2019-01-18T09:19:17.317Z,44.27
2019-01-18T09:21:43.313Z,44.24
2019-01-18T09:24:09.321Z,44.17
2019-01-18T09:26:35.350Z,44.18
2019-01-18T09:29:01.389Z,44.16
2019-01-18T09:31:27.417Z,44.04
2019-01-18T09:33:53.458Z,43.98
2019-01-18T09:36:19.449Z,43.87
2019-01-18T09:38:45.441Z,44.02
2019-01-18T09:41:11.481Z,43.70
2019-01-18T09:43:37.470Z,43.73
2019-01-18T09:46:03.454Z,43.82
2019-01-18T09:48:29.503Z,43.71
2019-01-18T09:50:55.495Z,43.77
2019-01-18T09:53:21.489Z,43.74
2019-01-18T09:55:47.557Z,43.61
2019-01-18T09:58:13.559Z,43.67
2019-01-18T10:00:39.549Z,43.48
2019-01-18T10:03:05.577Z,43.55
2019-01-18T10:05:31.592Z,43.61
2019-01-18T10:07:57.582Z,43.46
2019-01-18T10:10:23.627Z,43.31
2019-01-18T10:12:49.624Z,43.39
2019-01-18T10:15:15.732Z,43.32
2019-01-18T10:17:41.753Z,43.34
2019-01-18T10:20:07.750Z,43.32
2019-01-18T10:22:33.801Z,43.35
2019-01-18T10:24:59.806Z,43.34
2019-01-18T10:27:25.806Z,43.12
2019-01-18T10:29:51.835Z,43.31
2019-01-18T10:32:17.866Z,43.17
2019-01-18T10:34:43.862Z,43.13
2019-01-18T10:37:09.864Z,43.00
2019-01-18T10:39:35.909Z,43.22
2019-01-18T10:42:01.891Z,43.05
2019-01-18T10:44:27.886Z,42.98
2019-01-18T10:46:53.919Z,43.13
2019-01-18T10:49:19.939Z,43.13
2019-01-18T10:51:45.930Z,43.06
2019-01-18T10:54:11.956Z,42.94
2019-01-18T10:56:37.957Z,43.00
2019-01-18T10:59:03.957Z,42.93
2019-01-18T11:01:29.986Z,42.87
2019-01-18T11:03:55.966Z,42.97
2019-01-18T11:06:21.964Z,42.98
2019-01-18T11:08:47.976Z,42.86
2019-01-18T11:11:14.015Z,42.90
2019-01-18T11:13:40.018Z,42.94
2019-01-18T11:16:06.068Z,43.02
2019-01-18T11:18:32.090Z,42.95
2019-01-18T11:21:03.174Z,42.87
2019-01-18T11:23:29.212Z,42.75
2019-01-18T11:25:55.199Z,42.89
2019-01-18T11:28:21.199Z,42.94
2019-01-18T11:30:47.259Z,42.78
2019-01-18T11:33:13.251Z,42.98
2019-01-18T11:35:39.242Z,42.72
2019-01-18T11:38:05.316Z,42.81
2019-01-18T11:40:31.359Z,42.85
2019-01-18T11:42:57.343Z,42.64
2019-01-18T11:45:23.358Z,42.83
2019-01-18T11:47:49.367Z,42.78
2019-01-18T11:50:15.390Z,42.82
2019-01-18T11:52:41.422Z,42.92
2019-01-18T11:55:07.413Z,42.93
2019-01-18T11:57:33.447Z,42.78
2019-01-18T11:59:59.440Z,43.68
2019-01-18T12:02:25.430Z,43.18
2019-01-18T12:04:51.493Z,43.38
2019-01-18T12:07:17.517Z,43.26
2019-01-18T12:09:43.517Z,43.42
2019-01-18T12:12:09.568Z,43.06
2019-01-18T12:14:35.576Z,43.24
2019-01-18T12:17:01.571Z,43.17
2019-01-18T12:19:27.613Z,43.42
2019-01-18T12:21:53.600Z,43.39
2019-01-18T12:24:19.607Z,43.58
2019-01-18T12:26:45.628Z,43.67
2019-01-18T12:29:11.611Z,43.61
2019-01-18T12:31:37.614Z,43.61
2019-01-18T12:34:03.662Z,43.67
2019-01-18T12:36:29.655Z,43.60
2019-01-18T12:38:55.634Z,43.71
2019-01-18T12:41:21.659Z,43.71
2019-01-18T12:43:47.675Z,43.71
2019-01-18T12:46:13.678Z,43.74
2019-01-18T12:48:39.706Z,43.72
2019-01-18T12:51:05.700Z,43.84
2019-01-18T12:53:31.695Z,43.83
2019-01-18T12:55:57.717Z,43.87
2019-01-18T12:58:23.700Z,43.86
2019-01-18T13:00:49.704Z,43.90
2019-01-18T13:03:15.786Z,43.91
2019-01-18T13:05:47.731Z,43.78
2019-01-18T13:08:13.719Z,43.68
2019-01-18T13:10:39.813Z,43.73
2019-01-18T13:13:05.782Z,43.71
2019-01-18T13:15:31.774Z,43.71
2019-01-18T13:17:57.824Z,43.68
2019-01-18T13:20:23.866Z,43.68
2019-01-18T13:22:49.854Z,43.78
2019-01-18T13:25:15.899Z,43.69
2019-01-18T13:27:41.882Z,43.70
2019-01-18T13:30:07.867Z,43.61
2019-01-18T13:32:33.924Z,43.64
2019-01-18T13:34:59.909Z,43.53
2019-01-18T13:37:25.896Z,43.63
2019-01-18T13:39:52.037Z,43.52
2019-01-18T13:42:18.019Z,43.57
2019-01-18T13:44:44.007Z,43.52
2019-01-18T13:47:10.041Z,43.54
2019-01-18T13:49:36.048Z,43.55
2019-01-18T13:52:02.048Z,43.58
2019-01-18T13:54:28.098Z,43.51
2019-01-18T13:56:54.106Z,43.47
2019-01-18T13:59:20.091Z,43.45
2019-01-18T14:01:46.129Z,43.33
2019-01-18T14:04:12.168Z,43.30
2019-01-18T14:06:38.161Z,43.30
2019-01-18T14:09:04.194Z,43.23
2019-01-18T14:11:30.299Z,43.33
2019-01-18T14:13:56.273Z,43.22
2019-01-18T14:16:22.309Z,43.28
2019-01-18T14:18:48.314Z,43.28
2019-01-18T14:21:14.314Z,43.12
2019-01-18T14:23:40.349Z,43.09
2019-01-18T14:26:06.348Z,43.25
2019-01-18T14:28:32.362Z,43.21
2019-01-18T14:30:58.396Z,43.12
2019-01-18T14:33:24.383Z,43.25
2019-01-18T14:35:50.438Z,43.20
2019-01-18T14:38:16.476Z,42.83
2019-01-18T14:40:42.463Z,43.01
2019-01-18T14:43:08.481Z,43.05
2019-01-18T14:45:34.535Z,42.92
2019-01-18T14:48:00.523Z,43.04
2019-01-18T14:50:26.521Z,43.02
2019-01-18T14:52:52.570Z,42.81
2019-01-18T14:55:18.563Z,43.07
2019-01-18T14:57:44.577Z,42.95
2019-01-18T15:00:10.644Z,43.00
2019-01-18T15:02:36.632Z,43.04
2019-01-18T15:05:04.255Z,42.96
2019-01-18T15:07:28.689Z,43.02
2019-01-18T15:09:57.599Z,42.81
2019-01-18T15:12:20.708Z,42.87
2019-01-18T15:14:46.785Z,42.87
2019-01-18T15:17:12.806Z,43.00
2019-01-18T15:19:38.824Z,42.99
2019-01-18T15:22:04.847Z,42.95
2019-01-18T15:24:30.847Z,42.86
2019-01-18T15:26:56.864Z,43.03
2019-01-18T15:29:22.906Z,43.05
2019-01-18T15:31:48.908Z,43.07
2019-01-18T15:34:14.934Z,43.19
2019-01-18T15:36:40.983Z,43.20
2019-01-18T15:39:06.998Z,43.29
2019-01-18T15:41:33.001Z,43.31
2019-01-18T15:43:59.100Z,43.31
2019-01-18T15:46:25.098Z,43.36
2019-01-18T15:48:51.113Z,43.41
2019-01-18T15:51:17.172Z,43.44
2019-01-18T15:53:43.174Z,43.60
2019-01-18T15:56:09.182Z,43.66
2019-01-18T15:58:35.709Z,43.78
2019-01-18T16:01:04.707Z,43.95
2019-01-18T16:03:30.705Z,44.10
2019-01-18T16:05:56.792Z,44.16
2019-01-18T16:08:22.798Z,44.25
2019-01-18T16:10:48.856Z,44.29
2019-01-18T16:13:14.851Z,44.45
2019-01-18T16:15:40.848Z,44.36
2019-01-18T16:18:07.008Z,44.51
2019-01-18T16:20:33.173Z,44.59
2019-01-18T16:22:59.168Z,44.54
2019-01-18T16:25:25.233Z,44.61
2019-01-18T16:27:51.244Z,44.57
2019-01-18T16:30:17.239Z,44.63
2019-01-18T16:32:43.298Z,44.67
2019-01-18T16:35:09.341Z,44.73
2019-01-18T16:37:35.316Z,44.72
2019-01-18T16:40:01.372Z,44.81
2019-01-18T16:42:27.371Z,44.76
2019-01-18T16:44:53.376Z,44.81
2019-01-18T16:47:19.411Z,44.84
2019-01-18T16:49:45.408Z,44.77
2019-01-18T16:52:11.421Z,44.78
2019-01-18T16:54:37.480Z,44.93
2019-01-18T16:57:03.476Z,44.90
2019-01-18T16:59:29.508Z,44.95
2019-01-18T17:01:55.573Z,44.87
2019-01-18T17:04:21.761Z,45.01
2019-01-18T17:06:47.764Z,45.02
2019-01-18T17:09:13.823Z,45.03
2019-01-18T17:11:39.820Z,45.10
2019-01-18T17:14:05.816Z,45.06
2019-01-18T17:16:31.846Z,44.96
2019-01-18T17:18:57.855Z,44.94
2019-01-18T17:21:23.942Z,44.86
2019-01-18T17:23:49.984Z,44.89
2019-01-18T17:26:16.229Z,44.85
2019-01-18T17:28:42.225Z,44.87
2019-01-18T17:31:08.369Z,44.86
2019-01-18T17:33:36.819Z,44.82
2019-01-18T17:36:00.364Z,44.79
2019-01-18T17:38:26.391Z,44.72
2019-01-18T17:40:52.399Z,44.68
2019-01-18T17:43:18.435Z,44.70
2019-01-18T17:45:44.439Z,44.84
2019-01-18T17:48:10.438Z,44.84
2019-01-18T17:50:36.476Z,44.78
2019-01-18T17:53:02.472Z,44.90
2019-01-18T17:55:28.462Z,44.92
2019-01-18T17:57:54.552Z,44.92
2019-01-18T18:00:20.562Z,45.05
2019-01-18T18:02:46.565Z,45.01
2019-01-18T18:05:12.712Z,45.12
2019-01-18T18:07:39.077Z,45.03
2019-01-18T18:10:05.080Z,45.16
2019-01-18T18:12:31.307Z,45.05
2019-01-18T18:14:57.424Z,44.95
2019-01-18T18:17:23.426Z,45.00
2019-01-18T18:19:49.471Z,44.92
2019-01-18T18:22:15.510Z,44.93
2019-01-18T18:24:41.536Z,44.95
2019-01-18T18:27:07.652Z,44.88
2019-01-18T18:29:33.654Z,44.87
2019-01-18T18:31:59.677Z,44.90
2019-01-18T18:34:25.735Z,44.82
2019-01-18T18:36:51.778Z,44.80
2019-01-18T18:39:17.878Z,44.80
2019-01-18T18:41:43.930Z,44.86
2019-01-18T18:44:10.034Z,44.79
2019-01-18T18:46:36.035Z,44.81
2019-01-18T18:49:02.072Z,44.79
2019-01-18T18:51:28.313Z,44.79
2019-01-18T18:53:54.517Z,44.84
2019-01-18T18:56:20.781Z,44.82
2019-01-18T18:58:46.820Z,44.81
2019-01-18T19:01:13.129Z,44.75
2019-01-18T19:03:39.136Z,44.72
2019-01-18T19:06:07.877Z,44.70
2019-01-18T19:08:33.917Z,44.65
2019-01-18T19:11:00.053Z,44.64
2019-01-18T19:13:26.103Z,44.62
2019-01-18T19:15:52.119Z,44.63
2019-01-18T19:18:18.439Z,44.52
2019-01-18T19:20:44.613Z,44.57
2019-01-18T19:23:10.738Z,44.53
2019-01-18T19:25:36.761Z,44.66
2019-01-18T19:28:02.887Z,44.54
2019-01-18T19:30:28.884Z,44.55
2019-01-18T19:32:58.250Z,44.63
2019-01-18T19:35:23.012Z,44.78
2019-01-18T19:37:48.992Z,44.79
2019-01-18T19:40:14.982Z,44.89
2019-01-18T19:42:41.055Z,44.99
2019-01-18T19:45:07.052Z,44.98
2019-01-18T19:47:33.047Z,45.04
2019-01-18T19:49:59.069Z,45.05
2019-01-18T19:52:25.190Z,45.09
2019-01-18T19:54:51.230Z,45.13
2019-01-18T19:57:17.284Z,45.13
2019-01-18T19:59:43.284Z,45.15
2019-01-18T20:02:09.285Z,45.18
2019-01-18T20:04:35.625Z,45.14
2019-01-18T20:07:01.595Z,45.16
2019-01-18T20:09:27.758Z,45.09
2019-01-18T20:11:53.784Z,45.13
2019-01-18T20:14:19.780Z,45.21
2019-01-18T20:16:45.828Z,45.22
2019-01-18T20:19:11.881Z,45.19
2019-01-18T20:21:37.955Z,45.23
2019-01-18T20:24:04.001Z,45.22
2019-01-18T20:26:30.132Z,45.29
2019-01-18T20:28:56.150Z,45.24
2019-01-18T20:31:22.180Z,45.24
2019-01-18T20:33:48.212Z,45.23
2019-01-18T20:36:14.225Z,45.62
2019-01-18T20:38:40.867Z,46.59
2019-01-18T20:41:06.930Z,47.07
2019-01-18T20:43:32.928Z,47.23
2019-01-18T20:45:58.924Z,47.51
2019-01-18T20:48:24.976Z,47.50
2019-01-18T20:50:51.106Z,47.52
2019-01-18T20:53:17.701Z,47.20
2019-01-18T20:55:43.716Z,47.17
2019-01-18T20:58:10.059Z,47.08
2019-01-18T21:00:36.069Z,46.90
2019-01-18T21:03:02.076Z,46.96
2019-01-18T21:05:28.651Z,47.01
2019-01-18T21:07:54.653Z,46.91
2019-01-18T21:10:20.694Z,46.83
2019-01-18T21:12:46.729Z,46.77
2019-01-18T21:15:13.050Z,46.76
2019-01-18T21:17:39.092Z,46.82
2019-01-18T21:20:05.132Z,46.71
2019-01-18T21:22:31.142Z,46.80
2019-01-18T21:24:57.193Z,46.70
2019-01-18T21:27:23.191Z,46.75
2019-01-18T21:29:49.190Z,46.66
2019-01-18T21:32:15.203Z,46.69
2019-01-18T21:34:41.269Z,46.68
2019-01-18T21:37:07.264Z,46.75
2019-01-18T21:39:33.326Z,46.67
2019-01-18T21:41:59.307Z,46.67
2019-01-18T21:44:25.306Z,46.67
2019-01-18T21:46:51.351Z,46.64
2019-01-18T21:49:17.347Z,46.60
2019-01-18T21:51:43.344Z,46.58
2019-01-18T21:54:09.398Z,46.64
2019-01-18T21:56:35.391Z,46.58
2019-01-18T21:59:01.385Z,46.54
2019-01-18T22:01:27.429Z,46.80
2019-01-18T22:03:53.425Z,46.60
2019-01-18T22:06:19.425Z,46.59
2019-01-18T22:08:45.436Z,46.52
2019-01-18T22:11:11.433Z,46.53
2019-01-18T22:13:37.474Z,46.55
2019-01-18T22:16:03.474Z,46.55
2019-01-18T22:18:29.464Z,46.56
2019-01-18T22:20:55.505Z,46.51
2019-01-18T22:23:21.503Z,46.52
2019-01-18T22:25:47.501Z,46.56
2019-01-18T22:28:13.543Z,46.45
2019-01-18T22:30:39.543Z,46.52
2019-01-18T22:33:05.544Z,46.42
2019-01-18T22:35:31.604Z,46.49
2019-01-18T22:37:57.601Z,46.50
2019-01-18T22:40:23.594Z,46.46
2019-01-18T22:42:49.637Z,46.46
2019-01-18T22:45:15.632Z,46.43
2019-01-18T22:47:41.624Z,46.44
2019-01-18T22:50:07.664Z,46.45
2019-01-18T22:52:33.661Z,46.44
2019-01-18T22:54:59.655Z,46.40
2019-01-18T22:57:25.699Z,46.42
2019-01-18T22:59:51.697Z,46.37
2019-01-18T23:02:19.333Z,46.35
2019-01-18T23:04:43.732Z,46.32
2019-01-18T23:07:09.734Z,46.34
2019-01-18T23:09:35.726Z,46.34
2019-01-18T23:12:01.772Z,46.29
2019-01-18T23:14:27.768Z,46.25
2019-01-18T23:16:53.764Z,46.24
2019-01-18T23:19:19.803Z,46.29
2019-01-18T23:21:45.799Z,46.25
2019-01-18T23:24:11.795Z,46.25
2019-01-18T23:26:37.840Z,46.25
2019-01-18T23:29:03.842Z,46.23
2019-01-18T23:31:29.835Z,46.18
2019-01-18T23:33:55.845Z,46.17
2019-01-18T23:36:21.854Z,46.14
2019-01-18T23:38:47.895Z,46.16
2019-01-18T23:41:13.893Z,46.15
2019-01-18T23:43:39.893Z,46.10
2019-01-18T23:46:05.936Z,46.10
2019-01-18T23:48:31.942Z,46.10
2019-01-18T23:50:57.937Z,46.08
2019-01-18T23:53:23.981Z,46.07
2019-01-18T23:55:49.980Z,46.06
2019-01-18T23:58:15.976Z,46.06
